Northwood, IA

9:15 PM CDT on July 01, 2015 (GMT -0500)
KMNGLENV5 | | Change Station
CLOSE
Current Station
Personal Weather Station
Location: Glenville, MN
Elevation: 1320 ft
Nearby Weather Stations

Elev 1320 ft 43.54 °N, 93.24 °W | Updated 34 seconds ago

Clear
Clear
59.2 °F
Feels Like 59.2 °F
N
6.9
Wind Variable Wind from South
Gusts 6.9 mph

Today
High -- | Low -- °F
--% Chance of Precip.
Yesterday
High -- | Low -- °F
Precip. -- in
5:35 AM 8:57 PM
Full, 100% visible
Pressure 30.01 in
Visibility 10.0 miles
Clouds Clear
Dew Point 54 °F
Humidity 82%
Rainfall 0.00 in
Snow Depth Not available.
UV 0 out of 12
Pollen 4.90 out of 12
Air Quality Not available.
Flu Activity Not available.
METAR KAEL 020151Z AUTO 04004KT 10SM CLR 15/11 A3001 RMK AO2

More Conditions Fewer Conditions

Pressure 30.01 in
Visibility 10.0 miles
Clouds Clear
Dew Point 54 °F
Humidity 82%
Rainfall 0.00 in
Snow Depth Not available.
UV 0 out of 12
Pollen 4.90 out of 12
Air Quality Not available.
Flu Activity Not available.
METAR KAEL 020151Z AUTO 04004KT 10SM CLR 15/11 A3001 RMK AO2

More Conditions Fewer Conditions

10-Day Weather Forecast

×

Almanac

Astronomy

Jul. 01, 2015 Rise Set
Actual Time
Civil Twilight
Nautical Twilight
Astronomical Twilight
Moon
Length of Visible Light
Length of Day
Tomorrow will be .
, % of the Moon is Illuminated

Today's Extremes

State Highs State Lows

Community

WunderPhotos

Upload Photos

1,834,376 photos uploaded!

WunderBlogs® & News

Nearby

Air Quality

  Air Quality AQ Index Pollutant
Not available.

Snow Depth

Station Depth Elevation

Earthquake Activity

City Distance Mag. Time & Date
Minimum magnitude displayed is 2.5.

Coastal Water Temperatures

Place Temperature

Stations

Nearby Weather Stations

Station Location Temp. Windchill Dew Point Humidity Wind Precip. Elev Updated Type